sensor_id;sensor_type;location;lat;lon;timestamp;temperature;humidity
24682;DHT22;12802;53.390;-2.328;2022-08-19T00:00:20;17.60;99.90
24682;DHT22;12802;53.390;-2.328;2022-08-19T00:02:46;17.60;99.90
24682;DHT22;12802;53.390;-2.328;2022-08-19T00:05:13;17.60;99.90
24682;DHT22;12802;53.390;-2.328;2022-08-19T00:07:41;17.60;99.90
24682;DHT22;12802;53.390;-2.328;2022-08-19T00:10:10;17.60;99.90
24682;DHT22;12802;53.390;-2.328;2022-08-19T00:12:37;17.60;99.90
24682;DHT22;12802;53.390;-2.328;2022-08-19T00:15:08;17.60;99.90
24682;DHT22;12802;53.390;-2.328;2022-08-19T00:17:42;17.60;99.90
24682;DHT22;12802;53.390;-2.328;2022-08-19T00:20:12;17.50;99.90
24682;DHT22;12802;53.390;-2.328;2022-08-19T00:22:39;17.50;99.90
24682;DHT22;12802;53.390;-2.328;2022-08-19T00:25:07;17.50;99.90
24682;DHT22;12802;53.390;-2.328;2022-08-19T00:27:34;17.50;99.90
24682;DHT22;12802;53.390;-2.328;2022-08-19T00:30:00;17.50;99.90
24682;DHT22;12802;53.390;-2.328;2022-08-19T00:32:29;17.50;99.90
24682;DHT22;12802;53.390;-2.328;2022-08-19T00:34:54;17.50;99.90
24682;DHT22;12802;53.390;-2.328;2022-08-19T00:37:22;17.40;99.90
24682;DHT22;12802;53.390;-2.328;2022-08-19T00:39:49;17.50;99.90
24682;DHT22;12802;53.390;-2.328;2022-08-19T00:42:18;17.50;99.90
24682;DHT22;12802;53.390;-2.328;2022-08-19T00:44:44;17.50;99.90
24682;DHT22;12802;53.390;-2.328;2022-08-19T00:47:10;17.50;99.90
24682;DHT22;12802;53.390;-2.328;2022-08-19T00:49:44;17.50;99.90
24682;DHT22;12802;53.390;-2.328;2022-08-19T00:52:17;17.40;99.90
24682;DHT22;12802;53.390;-2.328;2022-08-19T00:54:45;17.40;99.90
24682;DHT22;12802;53.390;-2.328;2022-08-19T00:57:17;17.40;99.90
24682;DHT22;12802;53.390;-2.328;2022-08-19T00:59:46;17.40;99.90
24682;DHT22;12802;53.390;-2.328;2022-08-19T01:02:13;17.40;99.90
24682;DHT22;12802;53.390;-2.328;2022-08-19T01:04:40;17.40;99.90
24682;DHT22;12802;53.390;-2.328;2022-08-19T01:07:05;17.40;99.90
24682;DHT22;12802;53.390;-2.328;2022-08-19T01:09:32;17.30;99.90
24682;DHT22;12802;53.390;-2.328;2022-08-19T01:11:57;17.30;99.90
24682;DHT22;12802;53.390;-2.328;2022-08-19T01:14:24;17.30;99.90
24682;DHT22;12802;53.390;-2.328;2022-08-19T01:16:50;17.30;99.90
24682;DHT22;12802;53.390;-2.328;2022-08-19T01:19:34;17.30;99.90
24682;DHT22;12802;53.390;-2.328;2022-08-19T01:24:35;17.30;99.90
24682;DHT22;12802;53.390;-2.328;2022-08-19T01:27:04;17.30;99.90
24682;DHT22;12802;53.390;-2.328;2022-08-19T01:29:31;17.20;99.90
24682;DHT22;12802;53.390;-2.328;2022-08-19T01:31:57;17.20;99.90
24682;DHT22;12802;53.390;-2.328;2022-08-19T01:34:23;17.20;99.90
24682;DHT22;12802;53.390;-2.328;2022-08-19T01:36:49;17.10;99.90
24682;DHT22;12802;53.390;-2.328;2022-08-19T01:39:22;17.10;99.90
24682;DHT22;12802;53.390;-2.328;2022-08-19T01:41:48;17.10;99.90
24682;DHT22;12802;53.390;-2.328;2022-08-19T01:44:14;17.00;99.90
24682;DHT22;12802;53.390;-2.328;2022-08-19T01:46:41;17.00;99.90
24682;DHT22;12802;53.390;-2.328;2022-08-19T01:49:08;16.90;99.90
24682;DHT22;12802;53.390;-2.328;2022-08-19T01:51:34;16.80;99.90
24682;DHT22;12802;53.390;-2.328;2022-08-19T01:54:00;16.80;99.90
24682;DHT22;12802;53.390;-2.328;2022-08-19T01:56:26;16.70;99.90
24682;DHT22;12802;53.390;-2.328;2022-08-19T01:59:00;16.70;99.90
24682;DHT22;12802;53.390;-2.328;2022-08-19T02:01:27;16.60;99.90
24682;DHT22;12802;53.390;-2.328;2022-08-19T02:03:53;16.60;99.90
24682;DHT22;12802;53.390;-2.328;2022-08-19T02:06:20;16.50;99.90
24682;DHT22;12802;53.390;-2.328;2022-08-19T02:08:45;16.50;99.90
24682;DHT22;12802;53.390;-2.328;2022-08-19T02:11:27;16.40;99.90
24682;DHT22;12802;53.390;-2.328;2022-08-19T02:13:54;16.30;99.90
24682;DHT22;12802;53.390;-2.328;2022-08-19T02:16:20;16.20;99.90
24682;DHT22;12802;53.390;-2.328;2022-08-19T02:18:47;16.10;99.90
24682;DHT22;12802;53.390;-2.328;2022-08-19T02:21:17;15.90;99.90
24682;DHT22;12802;53.390;-2.328;2022-08-19T02:23:43;15.80;99.90
24682;DHT22;12802;53.390;-2.328;2022-08-19T02:26:10;15.80;99.90
24682;DHT22;12802;53.390;-2.328;2022-08-19T02:28:35;15.70;99.90
24682;DHT22;12802;53.390;-2.328;2022-08-19T02:31:02;15.60;99.90
24682;DHT22;12802;53.390;-2.328;2022-08-19T02:33:28;15.50;99.90
24682;DHT22;12802;53.390;-2.328;2022-08-19T02:35:54;15.50;99.90
24682;DHT22;12802;53.390;-2.328;2022-08-19T02:38:20;15.40;99.90
24682;DHT22;12802;53.390;-2.328;2022-08-19T02:40:58;15.40;99.90
24682;DHT22;12802;53.390;-2.328;2022-08-19T02:43:25;15.40;99.90
24682;DHT22;12802;53.390;-2.328;2022-08-19T02:45:52;15.30;99.90
24682;DHT22;12802;53.390;-2.328;2022-08-19T02:48:20;15.20;99.90
24682;DHT22;12802;53.390;-2.328;2022-08-19T02:50:46;15.20;99.90
24682;DHT22;12802;53.390;-2.328;2022-08-19T02:53:13;15.20;99.90
24682;DHT22;12802;53.390;-2.328;2022-08-19T02:55:46;15.20;99.90
24682;DHT22;12802;53.390;-2.328;2022-08-19T02:58:13;15.10;99.90
24682;DHT22;12802;53.390;-2.328;2022-08-19T03:00:51;15.10;99.90
24682;DHT22;12802;53.390;-2.328;2022-08-19T03:03:18;15.00;99.90
24682;DHT22;12802;53.390;-2.328;2022-08-19T03:05:44;14.90;99.90
24682;DHT22;12802;53.390;-2.328;2022-08-19T03:08:12;14.90;99.90
24682;DHT22;12802;53.390;-2.328;2022-08-19T03:10:46;14.90;99.90
24682;DHT22;12802;53.390;-2.328;2022-08-19T03:13:14;14.80;99.90
24682;DHT22;12802;53.390;-2.328;2022-08-19T03:15:44;14.80;99.90
24682;DHT22;12802;53.390;-2.328;2022-08-19T03:18:12;14.80;99.90
24682;DHT22;12802;53.390;-2.328;2022-08-19T03:20:44;14.70;99.90
24682;DHT22;12802;53.390;-2.328;2022-08-19T03:23:11;14.70;99.90
24682;DHT22;12802;53.390;-2.328;2022-08-19T03:25:39;14.70;99.90
24682;DHT22;12802;53.390;-2.328;2022-08-19T03:28:07;14.60;99.90
24682;DHT22;12802;53.390;-2.328;2022-08-19T03:30:33;14.50;99.90
24682;DHT22;12802;53.390;-2.328;2022-08-19T03:32:59;14.50;99.90
24682;DHT22;12802;53.390;-2.328;2022-08-19T03:35:25;14.40;99.90
24682;DHT22;12802;53.390;-2.328;2022-08-19T03:37:51;14.30;99.90
24682;DHT22;12802;53.390;-2.328;2022-08-19T03:40:18;14.30;99.90
24682;DHT22;12802;53.390;-2.328;2022-08-19T03:42:44;14.20;99.90
24682;DHT22;12802;53.390;-2.328;2022-08-19T03:45:11;14.20;99.90
24682;DHT22;12802;53.390;-2.328;2022-08-19T03:47:37;14.20;99.90
24682;DHT22;12802;53.390;-2.328;2022-08-19T03:50:04;14.10;99.90
24682;DHT22;12802;53.390;-2.328;2022-08-19T03:52:30;14.10;99.90
24682;DHT22;12802;53.390;-2.328;2022-08-19T03:54:56;14.10;99.90
24682;DHT22;12802;53.390;-2.328;2022-08-19T03:57:22;14.10;99.90
24682;DHT22;12802;53.390;-2.328;2022-08-19T03:59:48;14.10;99.90
24682;DHT22;12802;53.390;-2.328;2022-08-19T04:02:14;14.10;99.90
24682;DHT22;12802;53.390;-2.328;2022-08-19T04:04:42;14.10;99.90
24682;DHT22;12802;53.390;-2.328;2022-08-19T04:07:10;14.00;99.90
24682;DHT22;12802;53.390;-2.328;2022-08-19T04:09:36;14.00;99.90
24682;DHT22;12802;53.390;-2.328;2022-08-19T04:12:04;14.00;99.90
24682;DHT22;12802;53.390;-2.328;2022-08-19T04:14:31;14.00;99.90
24682;DHT22;12802;53.390;-2.328;2022-08-19T04:16:58;14.00;99.90
24682;DHT22;12802;53.390;-2.328;2022-08-19T04:19:25;13.90;99.90
24682;DHT22;12802;53.390;-2.328;2022-08-19T04:21:53;13.90;99.90
24682;DHT22;12802;53.390;-2.328;2022-08-19T04:24:20;13.90;99.90
24682;DHT22;12802;53.390;-2.328;2022-08-19T04:26:47;13.80;99.90
24682;DHT22;12802;53.390;-2.328;2022-08-19T04:29:22;13.80;99.90
24682;DHT22;12802;53.390;-2.328;2022-08-19T04:31:51;13.80;99.90
24682;DHT22;12802;53.390;-2.328;2022-08-19T04:34:20;13.80;99.90
24682;DHT22;12802;53.390;-2.328;2022-08-19T04:36:50;13.80;99.90
24682;DHT22;12802;53.390;-2.328;2022-08-19T04:39:19;13.70;99.90
24682;DHT22;12802;53.390;-2.328;2022-08-19T04:41:46;13.70;99.90
24682;DHT22;12802;53.390;-2.328;2022-08-19T04:44:34;13.70;99.90
24682;DHT22;12802;53.390;-2.328;2022-08-19T04:47:01;13.70;99.90
24682;DHT22;12802;53.390;-2.328;2022-08-19T04:49:31;13.70;99.90
24682;DHT22;12802;53.390;-2.328;2022-08-19T04:51:57;13.60;99.90
24682;DHT22;12802;53.390;-2.328;2022-08-19T04:54:24;13.60;99.90
24682;DHT22;12802;53.390;-2.328;2022-08-19T04:56:51;13.60;99.90
24682;DHT22;12802;53.390;-2.328;2022-08-19T04:59:19;13.60;99.90
24682;DHT22;12802;53.390;-2.328;2022-08-19T05:01:46;13.60;99.90
24682;DHT22;12802;53.390;-2.328;2022-08-19T05:04:18;13.50;99.90
24682;DHT22;12802;53.390;-2.328;2022-08-19T05:06:45;13.50;99.90
24682;DHT22;12802;53.390;-2.328;2022-08-19T05:09:10;13.50;99.90
24682;DHT22;12802;53.390;-2.328;2022-08-19T05:11:37;13.40;99.90
24682;DHT22;12802;53.390;-2.328;2022-08-19T05:14:05;13.40;99.90
24682;DHT22;12802;53.390;-2.328;2022-08-19T05:16:31;13.40;99.90
24682;DHT22;12802;53.390;-2.328;2022-08-19T05:18:57;13.40;99.90
24682;DHT22;12802;53.390;-2.328;2022-08-19T05:21:42;13.50;99.90
24682;DHT22;12802;53.390;-2.328;2022-08-19T05:24:27;13.50;99.90
24682;DHT22;12802;53.390;-2.328;2022-08-19T05:26:55;13.50;99.90
24682;DHT22;12802;53.390;-2.328;2022-08-19T05:29:24;13.50;99.90
24682;DHT22;12802;53.390;-2.328;2022-08-19T05:31:51;13.50;99.90
24682;DHT22;12802;53.390;-2.328;2022-08-19T05:34:19;13.50;99.90
24682;DHT22;12802;53.390;-2.328;2022-08-19T05:36:47;13.60;99.90
24682;DHT22;12802;53.390;-2.328;2022-08-19T05:39:17;13.60;99.90
24682;DHT22;12802;53.390;-2.328;2022-08-19T05:41:45;13.60;99.90
24682;DHT22;12802;53.390;-2.328;2022-08-19T05:44:12;13.60;99.90
24682;DHT22;12802;53.390;-2.328;2022-08-19T05:46:39;13.60;99.90
24682;DHT22;12802;53.390;-2.328;2022-08-19T05:49:05;13.50;99.90
24682;DHT22;12802;53.390;-2.328;2022-08-19T05:51:33;13.50;99.90
24682;DHT22;12802;53.390;-2.328;2022-08-19T05:54:00;13.60;99.90
24682;DHT22;12802;53.390;-2.328;2022-08-19T05:56:26;13.50;99.90
24682;DHT22;12802;53.390;-2.328;2022-08-19T05:58:52;13.50;99.90
24682;DHT22;12802;53.390;-2.328;2022-08-19T06:01:20;13.60;99.90
24682;DHT22;12802;53.390;-2.328;2022-08-19T06:03:46;13.60;99.90
24682;DHT22;12802;53.390;-2.328;2022-08-19T06:06:15;13.70;99.90
24682;DHT22;12802;53.390;-2.328;2022-08-19T06:08:42;13.70;99.90
24682;DHT22;12802;53.390;-2.328;2022-08-19T06:11:32;13.70;99.90
24682;DHT22;12802;53.390;-2.328;2022-08-19T06:14:01;13.80;99.90
24682;DHT22;12802;53.390;-2.328;2022-08-19T06:16:29;13.90;99.90
24682;DHT22;12802;53.390;-2.328;2022-08-19T06:19:02;14.00;99.90
24682;DHT22;12802;53.390;-2.328;2022-08-19T06:21:29;14.00;99.90
24682;DHT22;12802;53.390;-2.328;2022-08-19T06:23:56;14.00;99.90
24682;DHT22;12802;53.390;-2.328;2022-08-19T06:26:22;14.10;99.90
24682;DHT22;12802;53.390;-2.328;2022-08-19T06:28:49;14.10;99.90
24682;DHT22;12802;53.390;-2.328;2022-08-19T06:31:24;14.20;99.90
24682;DHT22;12802;53.390;-2.328;2022-08-19T06:33:50;14.30;99.90
24682;DHT22;12802;53.390;-2.328;2022-08-19T06:36:24;14.30;99.90
24682;DHT22;12802;53.390;-2.328;2022-08-19T06:38:56;14.30;99.90
24682;DHT22;12802;53.390;-2.328;2022-08-19T06:41:24;14.40;99.90
24682;DHT22;12802;53.390;-2.328;2022-08-19T06:43:50;14.40;99.90
24682;DHT22;12802;53.390;-2.328;2022-08-19T06:46:17;14.50;99.90
24682;DHT22;12802;53.390;-2.328;2022-08-19T06:48:44;14.50;99.90
24682;DHT22;12802;53.390;-2.328;2022-08-19T06:51:10;14.60;99.90
24682;DHT22;12802;53.390;-2.328;2022-08-19T06:53:36;14.60;99.90
24682;DHT22;12802;53.390;-2.328;2022-08-19T06:56:02;14.70;99.90
24682;DHT22;12802;53.390;-2.328;2022-08-19T06:58:29;14.70;99.90
24682;DHT22;12802;53.390;-2.328;2022-08-19T07:01:02;14.80;99.90
24682;DHT22;12802;53.390;-2.328;2022-08-19T07:03:33;14.80;99.90
24682;DHT22;12802;53.390;-2.328;2022-08-19T07:06:09;14.90;99.90
24682;DHT22;12802;53.390;-2.328;2022-08-19T07:08:36;14.90;99.90
24682;DHT22;12802;53.390;-2.328;2022-08-19T07:11:06;15.00;99.90
24682;DHT22;12802;53.390;-2.328;2022-08-19T07:13:33;15.00;99.90
24682;DHT22;12802;53.390;-2.328;2022-08-19T07:16:10;15.10;99.90
24682;DHT22;12802;53.390;-2.328;2022-08-19T07:18:37;15.10;99.90
24682;DHT22;12802;53.390;-2.328;2022-08-19T07:21:10;15.20;99.90
24682;DHT22;12802;53.390;-2.328;2022-08-19T07:23:36;15.20;99.90
24682;DHT22;12802;53.390;-2.328;2022-08-19T07:26:11;15.30;99.90
24682;DHT22;12802;53.390;-2.328;2022-08-19T07:28:37;15.30;99.90
24682;DHT22;12802;53.390;-2.328;2022-08-19T07:31:08;15.40;99.90
24682;DHT22;12802;53.390;-2.328;2022-08-19T07:33:35;15.40;99.90
24682;DHT22;12802;53.390;-2.328;2022-08-19T07:36:04;15.40;99.90
24682;DHT22;12802;53.390;-2.328;2022-08-19T07:38:31;15.50;99.90
24682;DHT22;12802;53.390;-2.328;2022-08-19T07:40:57;15.60;99.90
24682;DHT22;12802;53.390;-2.328;2022-08-19T07:43:23;15.50;99.90
24682;DHT22;12802;53.390;-2.328;2022-08-19T07:45:52;15.60;99.90
24682;DHT22;12802;53.390;-2.328;2022-08-19T07:48:27;15.70;99.90
24682;DHT22;12802;53.390;-2.328;2022-08-19T07:51:00;15.70;99.90
24682;DHT22;12802;53.390;-2.328;2022-08-19T07:53:31;15.70;99.90
24682;DHT22;12802;53.390;-2.328;2022-08-19T07:55:58;15.90;99.90
24682;DHT22;12802;53.390;-2.328;2022-08-19T07:58:37;15.80;99.90
24682;DHT22;12802;53.390;-2.328;2022-08-19T08:01:06;15.90;99.90
24682;DHT22;12802;53.390;-2.328;2022-08-19T08:03:32;15.90;99.90
24682;DHT22;12802;53.390;-2.328;2022-08-19T08:06:16;16.10;99.90
24682;DHT22;12802;53.390;-2.328;2022-08-19T08:09:03;16.10;99.90
24682;DHT22;12802;53.390;-2.328;2022-08-19T08:12:13;16.20;99.90
24682;DHT22;12802;53.390;-2.328;2022-08-19T08:14:45;16.20;99.90
24682;DHT22;12802;53.390;-2.328;2022-08-19T08:17:14;16.20;99.90
24682;DHT22;12802;53.390;-2.328;2022-08-19T08:19:41;16.10;99.90
24682;DHT22;12802;53.390;-2.328;2022-08-19T08:22:08;16.30;99.90
24682;DHT22;12802;53.390;-2.328;2022-08-19T08:24:55;16.40;99.90
24682;DHT22;12802;53.390;-2.328;2022-08-19T08:27:24;16.40;99.90
24682;DHT22;12802;53.390;-2.328;2022-08-19T08:29:50;16.50;99.90
24682;DHT22;12802;53.390;-2.328;2022-08-19T08:32:15;16.50;99.90
24682;DHT22;12802;53.390;-2.328;2022-08-19T08:34:42;16.60;99.90
24682;DHT22;12802;53.390;-2.328;2022-08-19T08:37:08;16.70;99.90
24682;DHT22;12802;53.390;-2.328;2022-08-19T08:39:34;16.70;99.90
24682;DHT22;12802;53.390;-2.328;2022-08-19T08:42:15;16.80;99.90
24682;DHT22;12802;53.390;-2.328;2022-08-19T08:45:10;16.80;99.90
24682;DHT22;12802;53.390;-2.328;2022-08-19T08:47:43;16.90;99.90
24682;DHT22;12802;53.390;-2.328;2022-08-19T08:52:52;17.00;99.90
24682;DHT22;12802;53.390;-2.328;2022-08-19T08:55:29;17.20;99.90
24682;DHT22;12802;53.390;-2.328;2022-08-19T08:58:03;17.40;99.90
24682;DHT22;12802;53.390;-2.328;2022-08-19T09:00:39;17.40;99.90
24682;DHT22;12802;53.390;-2.328;2022-08-19T09:03:32;17.40;99.90
24682;DHT22;12802;53.390;-2.328;2022-08-19T09:06:14;17.50;99.90
24682;DHT22;12802;53.390;-2.328;2022-08-19T09:13:59;17.70;99.90
24682;DHT22;12802;53.390;-2.328;2022-08-19T09:16:28;17.80;99.90
24682;DHT22;12802;53.390;-2.328;2022-08-19T09:18:58;17.80;99.90
24682;DHT22;12802;53.390;-2.328;2022-08-19T09:21:26;17.90;99.90
24682;DHT22;12802;53.390;-2.328;2022-08-19T09:23:53;18.00;99.90
24682;DHT22;12802;53.390;-2.328;2022-08-19T09:26:21;18.20;99.90
24682;DHT22;12802;53.390;-2.328;2022-08-19T09:28:49;18.30;99.90
24682;DHT22;12802;53.390;-2.328;2022-08-19T09:31:18;18.30;99.90
24682;DHT22;12802;53.390;-2.328;2022-08-19T09:33:45;18.20;99.90
24682;DHT22;12802;53.390;-2.328;2022-08-19T09:36:13;18.30;99.90
24682;DHT22;12802;53.390;-2.328;2022-08-19T09:38:40;18.30;99.90
24682;DHT22;12802;53.390;-2.328;2022-08-19T09:41:16;18.30;99.90
24682;DHT22;12802;53.390;-2.328;2022-08-19T09:43:45;18.50;99.90
24682;DHT22;12802;53.390;-2.328;2022-08-19T09:46:11;18.80;99.90
24682;DHT22;12802;53.390;-2.328;2022-08-19T09:48:41;19.00;99.90
24682;DHT22;12802;53.390;-2.328;2022-08-19T09:51:13;19.20;99.90
24682;DHT22;12802;53.390;-2.328;2022-08-19T09:53:46;19.20;99.90
24682;DHT22;12802;53.390;-2.328;2022-08-19T09:56:12;19.30;99.90
24682;DHT22;12802;53.390;-2.328;2022-08-19T09:58:39;19.10;99.90
24682;DHT22;12802;53.390;-2.328;2022-08-19T10:01:07;18.70;99.90
24682;DHT22;12802;53.390;-2.328;2022-08-19T10:03:34;18.60;99.90
24682;DHT22;12802;53.390;-2.328;2022-08-19T10:06:02;18.70;99.90
24682;DHT22;12802;53.390;-2.328;2022-08-19T10:08:30;19.00;99.90
24682;DHT22;12802;53.390;-2.328;2022-08-19T10:10:57;19.00;99.90
24682;DHT22;12802;53.390;-2.328;2022-08-19T10:13:26;19.30;99.90
24682;DHT22;12802;53.390;-2.328;2022-08-19T10:15:55;19.30;99.90
24682;DHT22;12802;53.390;-2.328;2022-08-19T10:18:22;19.30;99.90
24682;DHT22;12802;53.390;-2.328;2022-08-19T10:20:50;19.40;99.90
24682;DHT22;12802;53.390;-2.328;2022-08-19T10:23:17;19.80;99.90
24682;DHT22;12802;53.390;-2.328;2022-08-19T10:25:43;19.70;99.90
24682;DHT22;12802;53.390;-2.328;2022-08-19T10:28:09;19.40;99.90
24682;DHT22;12802;53.390;-2.328;2022-08-19T10:30:41;19.30;99.90
24682;DHT22;12802;53.390;-2.328;2022-08-19T10:33:07;19.70;99.90
24682;DHT22;12802;53.390;-2.328;2022-08-19T10:35:34;20.10;99.90
24682;DHT22;12802;53.390;-2.328;2022-08-19T10:38:00;20.60;99.90
24682;DHT22;12802;53.390;-2.328;2022-08-19T10:40:28;20.70;99.90
24682;DHT22;12802;53.390;-2.328;2022-08-19T10:42:55;20.50;99.90
24682;DHT22;12802;53.390;-2.328;2022-08-19T10:45:23;20.30;99.90
24682;DHT22;12802;53.390;-2.328;2022-08-19T10:47:53;20.00;99.90
24682;DHT22;12802;53.390;-2.328;2022-08-19T10:50:19;19.80;99.90
24682;DHT22;12802;53.390;-2.328;2022-08-19T10:53:06;19.60;99.90
24682;DHT22;12802;53.390;-2.328;2022-08-19T10:55:34;19.60;99.90
24682;DHT22;12802;53.390;-2.328;2022-08-19T10:58:21;19.50;99.90
24682;DHT22;12802;53.390;-2.328;2022-08-19T11:00:53;19.80;99.90
24682;DHT22;12802;53.390;-2.328;2022-08-19T11:03:19;20.00;99.90
24682;DHT22;12802;53.390;-2.328;2022-08-19T11:05:45;20.00;99.90
24682;DHT22;12802;53.390;-2.328;2022-08-19T11:08:11;20.00;99.90
24682;DHT22;12802;53.390;-2.328;2022-08-19T11:10:41;20.20;99.90
24682;DHT22;12802;53.390;-2.328;2022-08-19T11:13:08;20.40;99.90
24682;DHT22;12802;53.390;-2.328;2022-08-19T11:15:33;20.70;99.90
24682;DHT22;12802;53.390;-2.328;2022-08-19T11:18:00;20.70;99.90
24682;DHT22;12802;53.390;-2.328;2022-08-19T11:20:25;20.50;99.90
24682;DHT22;12802;53.390;-2.328;2022-08-19T11:22:52;20.30;99.90
24682;DHT22;12802;53.390;-2.328;2022-08-19T11:25:19;20.10;99.90
24682;DHT22;12802;53.390;-2.328;2022-08-19T11:27:44;19.80;99.90
24682;DHT22;12802;53.390;-2.328;2022-08-19T11:30:13;19.60;99.90
24682;DHT22;12802;53.390;-2.328;2022-08-19T11:32:41;19.50;99.90
24682;DHT22;12802;53.390;-2.328;2022-08-19T11:35:07;19.40;99.90
24682;DHT22;12802;53.390;-2.328;2022-08-19T11:37:33;19.50;99.90
24682;DHT22;12802;53.390;-2.328;2022-08-19T11:40:04;19.40;99.90
24682;DHT22;12802;53.390;-2.328;2022-08-19T11:42:31;19.40;99.90
24682;DHT22;12802;53.390;-2.328;2022-08-19T11:45:15;19.40;99.90
24682;DHT22;12802;53.390;-2.328;2022-08-19T11:47:41;19.80;99.90
24682;DHT22;12802;53.390;-2.328;2022-08-19T11:50:07;20.30;99.90
24682;DHT22;12802;53.390;-2.328;2022-08-19T11:52:33;20.70;99.90
24682;DHT22;12802;53.390;-2.328;2022-08-19T11:54:59;20.50;99.90
24682;DHT22;12802;53.390;-2.328;2022-08-19T11:57:24;20.20;99.90
24682;DHT22;12802;53.390;-2.328;2022-08-19T11:59:51;20.00;99.90
24682;DHT22;12802;53.390;-2.328;2022-08-19T12:02:18;19.80;99.90
24682;DHT22;12802;53.390;-2.328;2022-08-19T12:04:44;19.70;99.90
24682;DHT22;12802;53.390;-2.328;2022-08-19T12:07:10;19.70;99.90
24682;DHT22;12802;53.390;-2.328;2022-08-19T12:09:36;20.00;99.90
24682;DHT22;12802;53.390;-2.328;2022-08-19T12:12:03;20.40;99.90
24682;DHT22;12802;53.390;-2.328;2022-08-19T12:14:29;20.40;99.90
24682;DHT22;12802;53.390;-2.328;2022-08-19T12:16:56;20.40;99.90
24682;DHT22;12802;53.390;-2.328;2022-08-19T12:19:22;20.20;99.90
24682;DHT22;12802;53.390;-2.328;2022-08-19T12:21:48;20.10;99.90
24682;DHT22;12802;53.390;-2.328;2022-08-19T12:24:15;20.00;99.90
24682;DHT22;12802;53.390;-2.328;2022-08-19T12:26:40;19.80;99.90
24682;DHT22;12802;53.390;-2.328;2022-08-19T12:29:06;19.70;99.90
24682;DHT22;12802;53.390;-2.328;2022-08-19T12:31:33;19.60;99.90
24682;DHT22;12802;53.390;-2.328;2022-08-19T12:33:59;19.60;99.90
24682;DHT22;12802;53.390;-2.328;2022-08-19T12:36:26;19.70;99.90
24682;DHT22;12802;53.390;-2.328;2022-08-19T12:38:52;19.70;99.90
24682;DHT22;12802;53.390;-2.328;2022-08-19T12:41:18;19.70;99.90
24682;DHT22;12802;53.390;-2.328;2022-08-19T12:43:45;19.70;99.90
24682;DHT22;12802;53.390;-2.328;2022-08-19T12:46:11;19.60;99.90
24682;DHT22;12802;53.390;-2.328;2022-08-19T12:48:41;19.50;99.90
24682;DHT22;12802;53.390;-2.328;2022-08-19T12:51:09;19.50;99.90
24682;DHT22;12802;53.390;-2.328;2022-08-19T12:53:35;19.40;99.90
24682;DHT22;12802;53.390;-2.328;2022-08-19T12:56:02;19.30;99.90
24682;DHT22;12802;53.390;-2.328;2022-08-19T12:58:29;19.30;99.90
24682;DHT22;12802;53.390;-2.328;2022-08-19T13:00:55;19.20;99.90
24682;DHT22;12802;53.390;-2.328;2022-08-19T13:03:21;19.10;99.90
24682;DHT22;12802;53.390;-2.328;2022-08-19T13:05:52;19.10;99.90
24682;DHT22;12802;53.390;-2.328;2022-08-19T13:08:18;19.30;99.90
24682;DHT22;12802;53.390;-2.328;2022-08-19T13:10:44;19.50;99.90
24682;DHT22;12802;53.390;-2.328;2022-08-19T13:13:10;19.60;99.90
24682;DHT22;12802;53.390;-2.328;2022-08-19T13:15:40;19.50;99.90
24682;DHT22;12802;53.390;-2.328;2022-08-19T13:18:06;19.50;99.90
24682;DHT22;12802;53.390;-2.328;2022-08-19T13:20:32;19.40;99.90
24682;DHT22;12802;53.390;-2.328;2022-08-19T13:22:58;19.40;99.90
24682;DHT22;12802;53.390;-2.328;2022-08-19T13:25:24;19.40;99.90
24682;DHT22;12802;53.390;-2.328;2022-08-19T13:27:51;19.50;99.90
24682;DHT22;12802;53.390;-2.328;2022-08-19T13:30:18;19.60;99.90
24682;DHT22;12802;53.390;-2.328;2022-08-19T13:33:03;19.80;99.90
24682;DHT22;12802;53.390;-2.328;2022-08-19T13:35:50;19.90;99.90
24682;DHT22;12802;53.390;-2.328;2022-08-19T13:38:19;20.00;99.90
24682;DHT22;12802;53.390;-2.328;2022-08-19T13:40:46;20.10;99.90
24682;DHT22;12802;53.390;-2.328;2022-08-19T13:43:12;20.30;99.90
24682;DHT22;12802;53.390;-2.328;2022-08-19T13:45:37;20.50;99.90
24682;DHT22;12802;53.390;-2.328;2022-08-19T13:48:07;20.60;99.90
24682;DHT22;12802;53.390;-2.328;2022-08-19T13:50:39;20.60;99.90
24682;DHT22;12802;53.390;-2.328;2022-08-19T13:53:07;20.60;99.90
24682;DHT22;12802;53.390;-2.328;2022-08-19T13:55:34;20.80;99.90
24682;DHT22;12802;53.390;-2.328;2022-08-19T13:58:01;20.70;99.90
24682;DHT22;12802;53.390;-2.328;2022-08-19T14:00:32;20.60;99.90
24682;DHT22;12802;53.390;-2.328;2022-08-19T14:02:58;20.50;99.90
24682;DHT22;12802;53.390;-2.328;2022-08-19T14:05:26;20.40;99.90
24682;DHT22;12802;53.390;-2.328;2022-08-19T14:07:52;20.30;99.90
24682;DHT22;12802;53.390;-2.328;2022-08-19T14:10:19;20.40;99.90
24682;DHT22;12802;53.390;-2.328;2022-08-19T14:12:46;20.40;99.90
24682;DHT22;12802;53.390;-2.328;2022-08-19T14:15:12;20.30;99.90
24682;DHT22;12802;53.390;-2.328;2022-08-19T14:17:39;20.10;99.90
24682;DHT22;12802;53.390;-2.328;2022-08-19T14:20:06;20.00;99.90
24682;DHT22;12802;53.390;-2.328;2022-08-19T14:22:34;20.00;99.90
24682;DHT22;12802;53.390;-2.328;2022-08-19T14:25:00;20.00;99.90
24682;DHT22;12802;53.390;-2.328;2022-08-19T14:27:26;20.00;99.90
24682;DHT22;12802;53.390;-2.328;2022-08-19T14:29:52;19.90;99.90
24682;DHT22;12802;53.390;-2.328;2022-08-19T14:32:18;19.90;99.90
24682;DHT22;12802;53.390;-2.328;2022-08-19T14:34:44;19.90;99.90
24682;DHT22;12802;53.390;-2.328;2022-08-19T14:37:14;19.80;99.90
24682;DHT22;12802;53.390;-2.328;2022-08-19T14:39:41;19.90;99.90
24682;DHT22;12802;53.390;-2.328;2022-08-19T14:42:11;20.00;99.90
24682;DHT22;12802;53.390;-2.328;2022-08-19T14:44:37;19.90;99.90
24682;DHT22;12802;53.390;-2.328;2022-08-19T14:47:03;19.90;99.90
24682;DHT22;12802;53.390;-2.328;2022-08-19T14:49:29;19.90;99.90
24682;DHT22;12802;53.390;-2.328;2022-08-19T14:51:55;19.90;99.90
24682;DHT22;12802;53.390;-2.328;2022-08-19T14:54:22;19.80;99.90
24682;DHT22;12802;53.390;-2.328;2022-08-19T14:56:47;19.80;99.90
24682;DHT22;12802;53.390;-2.328;2022-08-19T14:59:14;19.70;99.90
24682;DHT22;12802;53.390;-2.328;2022-08-19T15:01:40;19.70;99.90
24682;DHT22;12802;53.390;-2.328;2022-08-19T15:04:06;19.70;99.90
24682;DHT22;12802;53.390;-2.328;2022-08-19T15:06:32;19.70;99.90
24682;DHT22;12802;53.390;-2.328;2022-08-19T15:08:58;19.70;99.90
24682;DHT22;12802;53.390;-2.328;2022-08-19T15:11:25;19.60;99.90
24682;DHT22;12802;53.390;-2.328;2022-08-19T15:13:54;19.60;99.90
24682;DHT22;12802;53.390;-2.328;2022-08-19T15:16:21;19.60;99.90
24682;DHT22;12802;53.390;-2.328;2022-08-19T15:18:50;19.70;99.90
24682;DHT22;12802;53.390;-2.328;2022-08-19T15:21:17;19.70;99.90
24682;DHT22;12802;53.390;-2.328;2022-08-19T15:23:45;19.70;99.90
24682;DHT22;12802;53.390;-2.328;2022-08-19T15:26:11;20.00;99.90
24682;DHT22;12802;53.390;-2.328;2022-08-19T15:28:38;20.30;99.90
24682;DHT22;12802;53.390;-2.328;2022-08-19T15:31:04;20.30;99.90
24682;DHT22;12802;53.390;-2.328;2022-08-19T15:33:35;20.20;99.90